< < Back
Terminal Aerodrome Forecast


Current Version              Previous Versions:   1  2  3  4  5  6  7  8  9  

Terminal Aerodrome Forecast

261
FTUS42 KILM 261720
TAFFLO
TAF
KFLO 261720Z 2618/2718 VRB06KT P6SM SCT050
     FM270100 VRB03KT P6SM FEW060
     FM270800 VRB02KT 5SM BR FEW060
     FM271200 04002KT 4SM BR SKC
     FM271300 08005KT P6SM SKC=



Latest METAR

938
SAUS70 KWBC 262000 RRM
MTRFLO
METAR KFLO 261953Z AUTO 13009KT 10SM SCT049 BKN055 34/21 A3004 RMK AO2
SLP170 T03390211 TSNO


USA.gov is the U.S. government's official web portal to all federal, state and local government web resources and services.